NCAR-RAP Real-Time Weather Data

Output produced by METARs form (17 December 2018  07:25 UTC)
found at http://weather.rap.ucar.edu/surface/
 
Conditions at: KPGD observed 17 December 2018  06:53 UTC
Temperature: 13.9°C (57°F)
Dewpoint: 11.1°C (52°F) [RH = 83%]
Pressure (altimeter): 30.14 inches Hg (1020.7 mb)
[Sea-level pressure: 1020.6 mb]
Winds: from the N (10 degrees) at 6 MPH (5 knots; 2.6 m/s)
Visibility: 10 or more miles (16+ km)
Ceiling: at least 12,000 feet AGL
Clouds: few clouds at 3700 feet AGL
Present Weather: automated observation with no human augmentation;
there may or may not be significant weather present at this time
KPGD 170653Z AUTO 01005KT 10SM FEW037 14/11 A3014 RMK AO2 SLP206 T01390111

Conditions at: KPGD observed 17 December 2018  05:53 UTC
Temperature: 15.0°C (59°F)
Dewpoint: 11.7°C (53°F) [RH = 81%]
Pressure (altimeter): 30.15 inches Hg (1021.1 mb)
[Sea-level pressure: 1020.9 mb]
Winds: calm
Visibility: 10 or more miles (16+ km)
Ceiling: 3800 feet AGL
Clouds: overcast cloud deck at 3800 feet AGL
Present Weather: automated observation with no human augmentation;
there may or may not be significant weather present at this time
KPGD 170553Z AUTO 00000KT 10SM OVC038 15/12 A3015 RMK AO2 SLP209 T01500117 10189 20139 58007

Conditions at: KPGD observed 17 December 2018  04:53 UTC
Temperature: 15.0°C (59°F)
Dewpoint: 12.2°C (54°F) [RH = 83%]
Pressure (altimeter): 30.17 inches Hg (1021.8 mb)
[Sea-level pressure: 1021.6 mb]
Winds: from the N (360 degrees) at 6 MPH (5 knots; 2.6 m/s)
Visibility: 10 or more miles (16+ km)
Ceiling: 3400 feet AGL
Clouds: overcast cloud deck at 3400 feet AGL
Present Weather: automated observation with no human augmentation;
there may or may not be significant weather present at this time
KPGD 170453Z AUTO 36005KT 10SM OVC034 15/12 A3017 RMK AO2 SLP216 T01500122 402500139

Conditions at: KPGD observed 17 December 2018  03:53 UTC
Temperature: 14.4°C (58°F)
Dewpoint: 11.7°C (53°F) [RH = 84%]
Pressure (altimeter): 30.17 inches Hg (1021.8 mb)
[Sea-level pressure: 1021.8 mb]
Winds: from the N (10 degrees) at 3 MPH (3 knots; 1.6 m/s)
Visibility: 10 or more miles (16+ km)
Ceiling: at least 12,000 feet AGL
Clouds: sky clear below 12,000 feet AGL
Present Weather: automated observation with no human augmentation;
there may or may not be significant weather present at this time
KPGD 170353Z AUTO 01003KT 10SM CLR 14/12 A3017 RMK AO2 SLP218 T01440117

Conditions at: KPGD observed 17 December 2018  02:53 UTC
Temperature: 15.0°C (59°F)
Dewpoint: 12.2°C (54°F) [RH = 83%]
Pressure (altimeter): 30.17 inches Hg (1021.8 mb)
[Sea-level pressure: 1021.6 mb]
Winds: from the N (10 degrees) at 6 MPH (5 knots; 2.6 m/s)
Visibility: 10 or more miles (16+ km)
Ceiling: at least 12,000 feet AGL
Clouds: sky clear below 12,000 feet AGL
Present Weather: automated observation with no human augmentation;
there may or may not be significant weather present at this time
KPGD 170253Z AUTO 01005KT 10SM CLR 15/12 A3017 RMK AO2 SLP216 T01500122 50013

Conditions at: KPGD observed 17 December 2018  01:53 UTC
Temperature: 16.1°C (61°F)
Dewpoint: 12.8°C (55°F) [RH = 81%]
Pressure (altimeter): 30.17 inches Hg (1021.8 mb)
[Sea-level pressure: 1021.8 mb]
Winds: from the N (350 degrees) at 7 MPH (6 knots; 3.1 m/s)
Visibility: 10 or more miles (16+ km)
Ceiling: at least 12,000 feet AGL
Clouds: sky clear below 12,000 feet AGL
Present Weather: automated observation with no human augmentation;
there may or may not be significant weather present at this time
KPGD 170153Z AUTO 35006KT 10SM CLR 16/13 A3017 RMK AO2 SLP218 T01610128

Conditions at: KPGD observed 17 December 2018  00:53 UTC
Temperature: 17.2°C (63°F)
Dewpoint: 13.3°C (56°F) [RH = 78%]
Pressure (altimeter): 30.15 inches Hg (1021.1 mb)
[Sea-level pressure: 1021.1 mb]
Winds: from the NNW (330 degrees) at 9 MPH (8 knots; 4.2 m/s)
Visibility: 10 or more miles (16+ km)
Ceiling: at least 12,000 feet AGL
Clouds: sky clear below 12,000 feet AGL
Present Weather: no significant weather observed at this time
KPGD 170053Z 33008KT 10SM CLR 17/13 A3015 RMK AO2 SLP211 T01720133

Conditions at: KPGD observed 16 December 2018  23:53 UTC
Temperature: 18.9°C (66°F)
Dewpoint: 13.3°C (56°F) [RH = 70%]
Pressure (altimeter): 30.13 inches Hg (1020.4 mb)
[Sea-level pressure: 1020.3 mb]
Winds: from the NW (310 degrees) at 8 MPH (7 knots; 3.6 m/s)
Visibility: 10 or more miles (16+ km)
Ceiling: at least 12,000 feet AGL
Clouds: sky clear below 12,000 feet AGL
Present Weather: no significant weather observed at this time
KPGD 162353Z 31007KT 10SM CLR 19/13 A3013 RMK AO2 SLP203 T01890133 10250 20183 53017

Conditions at: KPGD observed 16 December 2018  22:53 UTC
Temperature: 20.0°C (68°F)
Dewpoint: 13.9°C (57°F) [RH = 68%]
Pressure (altimeter): 30.11 inches Hg (1019.7 mb)
[Sea-level pressure: 1019.7 mb]
Winds: from the WNW (290 degrees) at 8 MPH (7 knots; 3.6 m/s)
Visibility: 10 or more miles (16+ km)
Ceiling: at least 12,000 feet AGL
Clouds: sky clear below 12,000 feet AGL
Present Weather: no significant weather observed at this time
KPGD 162253Z 29007KT 10SM CLR 20/14 A3011 RMK AO2 SLP197 T02000139

Conditions at: KPGD observed 16 December 2018  21:53 UTC
Temperature: 22.2°C (72°F)
Dewpoint: 14.4°C (58°F) [RH = 61%]
Pressure (altimeter): 30.10 inches Hg (1019.4 mb)
[Sea-level pressure: 1019.2 mb]
Winds: from the WNW (290 degrees) at 8 MPH (7 knots; 3.6 m/s)
Visibility: 10 or more miles (16+ km)
Ceiling: at least 12,000 feet AGL
Clouds: few clouds at 3500 feet AGL
Present Weather: no significant weather observed at this time
KPGD 162153Z 29007KT 10SM FEW035 22/14 A3010 RMK AO2 SLP192 T02220144

Conditions at: KPGD observed 16 December 2018  20:53 UTC
Temperature: 23.3°C (74°F)
Dewpoint: 13.9°C (57°F) [RH = 56%]
Pressure (altimeter): 30.08 inches Hg (1018.7 mb)
[Sea-level pressure: 1018.7 mb]
Winds: from the W (280 degrees) at 13 MPH (11 knots; 5.7 m/s)
Visibility: 10 or more miles (16+ km)
Ceiling: at least 12,000 feet AGL
Clouds: scattered clouds at 3500 feet AGL
Present Weather: no significant weather observed at this time
KPGD 162053Z 28011KT 10SM SCT035 23/14 A3008 RMK AO2 SLP187 T02330139 55005

Conditions at: KPGD observed 16 December 2018  19:53 UTC
Temperature: 23.9°C (75°F)
Dewpoint: 15.0°C (59°F) [RH = 57%]
Pressure (altimeter): 30.07 inches Hg (1018.4 mb)
[Sea-level pressure: 1018.3 mb]
Winds: from the W (270 degrees) at 12 MPH (10 knots; 5.2 m/s)
Visibility: 10 or more miles (16+ km)
Ceiling: at least 12,000 feet AGL
Clouds: scattered clouds at 3500 feet AGL
Present Weather: no significant weather observed at this time
KPGD 161953Z 27010KT 10SM SCT035 24/15 A3007 RMK AO2 SLP183 T02390150

Conditions at: KPGD observed 16 December 2018  18:53 UTC
Temperature: 23.3°C (74°F)
Dewpoint: 13.9°C (57°F) [RH = 56%]
Pressure (altimeter): 30.08 inches Hg (1018.7 mb)
[Sea-level pressure: 1018.6 mb]
Winds: from the W (280 degrees) at 12 MPH (10 knots; 5.2 m/s)
Visibility: 10 or more miles (16+ km)
Ceiling: at least 12,000 feet AGL
Clouds: scattered clouds at 4000 feet AGL
Present Weather: no significant weather observed at this time
KPGD 161853Z 28010KT 10SM SCT040 23/14 A3008 RMK AO2 SLP186 T02330139

Conditions at: KPGD observed 16 December 2018  17:53 UTC
Temperature: 23.9°C (75°F)
Dewpoint: 14.4°C (58°F) [RH = 55%]
Pressure (altimeter): 30.10 inches Hg (1019.4 mb)
[Sea-level pressure: 1019.2 mb]
Winds: from the WSW (250 degrees) at 9 MPH (8 knots; 4.2 m/s)
Visibility: 10 or more miles (16+ km)
Ceiling: at least 12,000 feet AGL
Clouds: sky clear below 12,000 feet AGL
Present Weather: no significant weather observed at this time
KPGD 161753Z 25008KT 10SM CLR 24/14 A3010 RMK AO2 SLP192 T02390144 10244 20156 58026

Conditions at: KPGD observed 16 December 2018  16:53 UTC
Temperature: 23.9°C (75°F)
Dewpoint: 13.9°C (57°F) [RH = 54%]
Pressure (altimeter): 30.13 inches Hg (1020.4 mb)
[Sea-level pressure: 1020.4 mb]
Winds: from the W (270 degrees) at 6 MPH (5 knots; 2.6 m/s)
Visibility: 10 or more miles (16+ km)
Ceiling: at least 12,000 feet AGL
Clouds: sky clear below 12,000 feet AGL
Present Weather: no significant weather observed at this time
KPGD 161653Z 27005KT 10SM CLR 24/14 A3013 RMK AO2 SLP204 T02390139

Conditions at: KPGD observed 16 December 2018  15:53 UTC
Temperature: 22.8°C (73°F)
Dewpoint: 15.0°C (59°F) [RH = 61%]
Pressure (altimeter): 30.16 inches Hg (1021.4 mb)
[Sea-level pressure: 1021.3 mb]
Winds: from the NW (310 degrees) at 3 MPH (3 knots; 1.6 m/s)
Visibility: 10 or more miles (16+ km)
Ceiling: at least 12,000 feet AGL
Clouds: sky clear below 12,000 feet AGL
Present Weather: no significant weather observed at this time
KPGD 161553Z 31003KT 10SM CLR 23/15 A3016 RMK AO2 SLP213 T02280150

Conditions at: KPGD observed 16 December 2018  14:53 UTC
Temperature: 21.7°C (71°F)
Dewpoint: 16.1°C (61°F) [RH = 70%]
Pressure (altimeter): 30.17 inches Hg (1021.8 mb)
[Sea-level pressure: 1021.8 mb]
Winds: from the NNW (330 degrees) at 5 MPH (4 knots; 2.1 m/s)
Visibility: 10 or more miles (16+ km)
Ceiling: at least 12,000 feet AGL
Clouds: sky clear below 12,000 feet AGL
Present Weather: no significant weather observed at this time
KPGD 161453Z 33004KT 10SM CLR 22/16 A3017 RMK AO2 SLP218 T02170161 51012

Conditions at: KPGD observed 16 December 2018  13:53 UTC
Temperature: 19.4°C (67°F)
Dewpoint: 17.8°C (64°F) [RH = 90%]
Pressure (altimeter): 30.16 inches Hg (1021.4 mb)
[Sea-level pressure: 1021.5 mb]
Winds: calm
Visibility: 10 or more miles (16+ km)
Ceiling: at least 12,000 feet AGL
Clouds: sky clear below 12,000 feet AGL
Present Weather: no significant weather observed at this time
KPGD 161353Z 00000KT 10SM CLR 19/18 A3016 RMK AO2 SLP215 T01940178

Conditions at: KPGD observed 16 December 2018  12:53 UTC
Temperature: 16.1°C (61°F)
Dewpoint: 15.0°C (59°F) [RH = 93%]
Pressure (altimeter): 30.16 inches Hg (1021.4 mb)
[Sea-level pressure: 1021.3 mb]
Winds: calm
Visibility: 10 or more miles (16+ km)
Ceiling: at least 12,000 feet AGL
Clouds: sky clear below 12,000 feet AGL
Present Weather: no significant weather observed at this time
KPGD 161253Z 00000KT 10SM CLR 16/15 A3016 RMK AO2 SLP213 T01610150

Conditions at: KPGD observed 16 December 2018  11:53 UTC
Temperature: 16.7°C (62°F)
Dewpoint: 15.6°C (60°F) [RH = 93%]
Pressure (altimeter): 30.14 inches Hg (1020.7 mb)
[Sea-level pressure: 1020.6 mb]
Winds: calm
Visibility: 10 or more miles (16+ km)
Ceiling: 6000 feet AGL
Clouds: broken clouds at 6000 feet AGL
Present Weather: no significant weather observed at this time
KPGD 161153Z 00000KT 10SM BKN060 17/16 A3014 RMK AO2 RAE01 SLP206 P0000 60000 70011 T01670156 10172 20144 53012

Conditions at: KPGD observed 16 December 2018  10:53 UTC
Temperature: 16.1°C (61°F)
Dewpoint: 15.6°C (60°F) [RH = 97%]
Pressure (altimeter): 30.12 inches Hg (1020.1 mb)
[Sea-level pressure: 1020.0 mb]
Winds: calm
Visibility: 8 miles (13 km)
Ceiling: 4400 feet AGL
Clouds: few clouds at 2800 feet AGL
scattered clouds at 3400 feet AGL
overcast cloud deck at 4400 feet AGL
Present Weather: -RA  (light rain)
KPGD 161053Z 00000KT 8SM -RA FEW028 SCT034 OVC044 16/16 A3012 RMK AO2 RAB48 SLP200 P0000 T01610156

Conditions at: KPGD observed 16 December 2018  09:53 UTC
Temperature: 15.0°C (59°F)
Dewpoint: 14.4°C (58°F) [RH = 96%]
Pressure (altimeter): 30.11 inches Hg (1019.7 mb)
[Sea-level pressure: 1019.6 mb]
Winds: from the S (190 degrees) at 6 MPH (5 knots; 2.6 m/s)
Visibility: 9 miles (14 km)
Ceiling: at least 12,000 feet AGL
Clouds: sky clear below 12,000 feet AGL
Present Weather: automated observation with no human augmentation;
there may or may not be significant weather present at this time
KPGD 160953Z AUTO 19005KT 9SM CLR 15/14 A3011 RMK AO2 SLP196 T01500144

Conditions at: KPGD observed 16 December 2018  09:33 UTC
Temperature: 15.0°C (59°F)
Dewpoint: 14.4°C (58°F) [RH = 96%]
Pressure (altimeter): 30.11 inches Hg (1019.7 mb)
Winds: from the S (190 degrees) at 6 MPH (5 knots; 2.6 m/s)
Visibility: 3 miles (5 km)
Ceiling: at least 12,000 feet AGL
Clouds: sky clear below 12,000 feet AGL
Present Weather: BR  (mist)
KPGD 160933Z AUTO 19005KT 3SM BR CLR 15/14 A3011 RMK AO2 T01500144

Conditions at: KPGD observed 16 December 2018  09:18 UTC
Temperature: 15.0°C (59°F)
Dewpoint: 13.9°C (57°F) [RH = 93%]
Pressure (altimeter): 30.10 inches Hg (1019.4 mb)
Winds: from the S (190 degrees) at 6 MPH (5 knots; 2.6 m/s)
Visibility: 1.75 miles (2.82 km)
Ceiling: at least 12,000 feet AGL
Clouds: sky clear below 12,000 feet AGL
Present Weather: BR  (mist)
KPGD 160918Z AUTO 19005KT 1 3/4SM BR CLR 15/14 A3010 RMK AO2 VIS 1 1/4V4 T01500139

Conditions at: KPGD observed 16 December 2018  08:53 UTC
Temperature: 15.0°C (59°F)
Dewpoint: 14.4°C (58°F) [RH = 96%]
Pressure (altimeter): 30.10 inches Hg (1019.4 mb)
[Sea-level pressure: 1019.4 mb]
Winds: from the S (190 degrees) at 5 MPH (4 knots; 2.1 m/s)
Visibility: 7 miles (11 km)
Ceiling: at least 12,000 feet AGL
Clouds: sky clear below 12,000 feet AGL
Present Weather: automated observation with no human augmentation;
there may or may not be significant weather present at this time
KPGD 160853Z AUTO 19004KT 7SM CLR 15/14 A3010 RMK AO2 SLP194 T01500144 55004

Conditions at: KPGD observed 16 December 2018  07:53 UTC
Temperature: 15.6°C (60°F)
Dewpoint: 14.4°C (58°F) [RH = 93%]
Pressure (altimeter): 30.09 inches Hg (1019.0 mb)
[Sea-level pressure: 1019.1 mb]
Winds: from the S (180 degrees) at 5 MPH (4 knots; 2.1 m/s)
Visibility: 10 or more miles (16+ km)
Ceiling: at least 12,000 feet AGL
Clouds: sky clear below 12,000 feet AGL
Present Weather: automated observation with no human augmentation;
there may or may not be significant weather present at this time
KPGD 160753Z AUTO 18004KT 10SM CLR 16/14 A3009 RMK AO2 SLP191 T01560144